createdAt,value
2018-07-26T00:01:56.135Z,60.70
2018-07-26T00:04:25.593Z,60.30
2018-07-26T00:06:55.038Z,60.10
2018-07-26T00:09:24.596Z,60.00
2018-07-26T00:11:54.039Z,60.00
2018-07-26T00:14:23.464Z,60.00
2018-07-26T00:16:52.838Z,60.00
2018-07-26T00:19:22.342Z,59.90
2018-07-26T00:21:51.860Z,59.90
2018-07-26T00:24:21.319Z,59.80
2018-07-26T00:26:50.764Z,59.90
2018-07-26T00:29:20.330Z,60.00
2018-07-26T00:31:50.078Z,60.00
2018-07-26T00:34:19.679Z,60.00
2018-07-26T00:36:49.218Z,60.00
2018-07-26T00:39:18.864Z,60.00
2018-07-26T00:41:48.296Z,60.30
2018-07-26T00:44:17.905Z,60.30
2018-07-26T00:46:47.444Z,60.40
2018-07-26T00:49:16.936Z,60.40
2018-07-26T00:51:46.456Z,60.40
2018-07-26T00:54:15.927Z,60.50
2018-07-26T00:56:45.457Z,60.60
2018-07-26T00:59:14.885Z,60.60
2018-07-26T01:01:44.493Z,60.60
2018-07-26T01:04:14.131Z,60.80
2018-07-26T01:06:43.732Z,60.90
2018-07-26T01:09:13.609Z,60.90
2018-07-26T01:11:43.095Z,61.10
2018-07-26T01:14:12.471Z,60.90
2018-07-26T01:16:42.064Z,61.00
2018-07-26T01:19:11.849Z,60.90
2018-07-26T01:21:41.317Z,61.10
2018-07-26T01:24:10.976Z,61.00
2018-07-26T01:26:40.481Z,61.80
2018-07-26T01:29:10.154Z,61.00
2018-07-26T01:31:40.000Z,61.10
2018-07-26T01:34:09.612Z,61.30
2018-07-26T01:36:39.062Z,61.10
2018-07-26T01:39:09.815Z,61.10
2018-07-26T01:41:39.570Z,61.20
2018-07-26T01:44:24.064Z,61.30
2018-07-26T01:46:53.489Z,61.30
2018-07-26T01:49:23.325Z,61.20
2018-07-26T01:51:52.957Z,61.20
2018-07-26T01:54:22.525Z,61.20
2018-07-26T01:56:52.108Z,61.10
2018-07-26T01:59:21.967Z,61.20
2018-07-26T02:01:51.767Z,61.30
2018-07-26T02:04:21.322Z,61.40
2018-07-26T02:06:50.969Z,61.40
2018-07-26T02:09:20.500Z,61.30
2018-07-26T02:11:50.019Z,63.90
2018-07-26T02:14:24.773Z,63.30
2018-07-26T02:16:54.431Z,62.90
2018-07-26T02:19:24.672Z,62.70
2018-07-26T02:21:54.218Z,62.30
2018-07-26T02:24:23.767Z,62.20
2018-07-26T02:26:53.353Z,62.10
2018-07-26T02:29:22.799Z,62.00
2018-07-26T02:31:52.508Z,61.80
2018-07-26T02:34:22.213Z,61.80
2018-07-26T02:36:51.755Z,61.90
2018-07-26T02:39:21.345Z,61.80
2018-07-26T02:41:50.738Z,61.80
2018-07-26T02:44:20.357Z,61.70
2018-07-26T02:46:49.990Z,61.70
2018-07-26T02:49:19.486Z,63.30
2018-07-26T02:51:48.954Z,63.00
2018-07-26T02:54:19.511Z,62.80
2018-07-26T02:56:48.969Z,62.60
2018-07-26T02:59:18.667Z,62.60
2018-07-26T03:01:48.329Z,62.40
2018-07-26T03:04:17.878Z,62.40
2018-07-26T03:06:47.560Z,62.30
2018-07-26T03:09:16.971Z,62.50
2018-07-26T03:11:46.407Z,62.50
2018-07-26T03:14:15.950Z,62.60
2018-07-26T03:16:45.620Z,62.50
2018-07-26T03:19:15.182Z,62.60
2018-07-26T03:21:44.827Z,62.50
2018-07-26T03:24:14.346Z,62.50
2018-07-26T03:26:43.777Z,62.60
2018-07-26T03:29:13.366Z,62.70
2018-07-26T03:31:42.760Z,62.60
2018-07-26T03:34:12.287Z,62.70
2018-07-26T03:36:41.981Z,62.70
2018-07-26T03:39:11.427Z,62.60
2018-07-26T03:41:40.907Z,62.70
2018-07-26T03:44:10.624Z,62.70
2018-07-26T03:46:40.233Z,62.70
2018-07-26T03:49:10.336Z,62.70
2018-07-26T03:51:39.816Z,64.50
2018-07-26T03:54:09.476Z,64.10
2018-07-26T03:56:39.045Z,63.70
2018-07-26T03:59:08.704Z,63.40
2018-07-26T04:01:38.289Z,63.30
2018-07-26T04:04:09.743Z,63.30
2018-07-26T04:06:39.461Z,63.30
2018-07-26T04:09:14.211Z,63.30
2018-07-26T04:11:45.551Z,63.20
2018-07-26T04:14:15.081Z,63.20
2018-07-26T04:16:44.593Z,63.30
2018-07-26T04:19:14.019Z,63.40
2018-07-26T04:21:43.700Z,63.30
2018-07-26T04:24:13.383Z,63.40
2018-07-26T04:26:42.896Z,63.50
2018-07-26T04:29:12.394Z,63.60
2018-07-26T04:31:41.897Z,63.70
2018-07-26T04:34:11.274Z,63.70
2018-07-26T04:36:40.758Z,63.80
2018-07-26T04:39:10.794Z,64.00
2018-07-26T04:41:40.350Z,64.00
2018-07-26T04:44:09.895Z,64.20
2018-07-26T04:46:39.540Z,64.30
2018-07-26T04:49:09.109Z,64.50
2018-07-26T04:51:38.971Z,64.50
2018-07-26T04:54:08.782Z,64.60
2018-07-26T04:56:38.643Z,65.00
2018-07-26T04:59:08.511Z,65.00
2018-07-26T05:01:38.015Z,65.10
2018-07-26T05:04:07.640Z,65.30
2018-07-26T05:06:37.044Z,65.40
2018-07-26T05:09:09.691Z,65.60
2018-07-26T05:11:39.071Z,65.40
2018-07-26T05:14:08.448Z,65.50
2018-07-26T05:16:37.928Z,65.90
2018-07-26T05:19:07.748Z,65.90
2018-07-26T05:21:37.472Z,65.80
2018-07-26T05:24:09.394Z,65.80
2018-07-26T05:26:39.658Z,66.00
2018-07-26T05:29:09.483Z,65.90
2018-07-26T05:31:38.939Z,65.80
2018-07-26T05:34:08.506Z,65.60
2018-07-26T05:36:37.958Z,65.60
2018-07-26T05:39:10.605Z,67.80
2018-07-26T05:41:40.449Z,67.20
2018-07-26T05:44:10.105Z,66.70
2018-07-26T05:46:39.999Z,66.00
2018-07-26T05:53:14.404Z,65.60
2018-07-26T05:55:44.332Z,65.10
2018-07-26T05:58:13.950Z,65.10
2018-07-26T06:00:43.324Z,65.10
2018-07-26T06:03:18.952Z,64.90
2018-07-26T06:05:48.987Z,64.80
2018-07-26T06:11:11.013Z,64.60
2018-07-26T06:13:40.798Z,64.50
2018-07-26T06:16:10.626Z,64.50
2018-07-26T06:18:40.078Z,64.50
2018-07-26T06:21:09.741Z,64.20
2018-07-26T06:23:39.432Z,64.10
2018-07-26T06:26:09.044Z,64.00
2018-07-26T06:28:39.106Z,64.00
2018-07-26T06:31:08.836Z,63.80
2018-07-26T06:33:38.377Z,63.90
2018-07-26T06:36:08.214Z,63.90
2018-07-26T06:38:38.104Z,63.70
2018-07-26T06:43:48.930Z,63.60
2018-07-26T06:46:18.354Z,63.80
2018-07-26T06:48:49.258Z,63.80
2018-07-26T06:51:18.952Z,63.60
2018-07-26T06:53:48.440Z,63.50
2018-07-26T06:56:18.326Z,63.30
2018-07-26T06:58:47.697Z,63.60
2018-07-26T07:01:17.728Z,63.60
2018-07-26T07:03:47.350Z,63.20
2018-07-26T07:06:16.774Z,63.20
2018-07-26T07:08:46.260Z,62.70
2018-07-26T07:11:16.147Z,62.90
2018-07-26T07:13:47.988Z,63.00
2018-07-26T07:16:17.447Z,63.10
2018-07-26T07:22:03.198Z,62.80
2018-07-26T07:24:32.690Z,62.40
2018-07-26T07:27:02.196Z,62.80
2018-07-26T07:29:32.030Z,62.20
2018-07-26T07:32:01.904Z,62.00
2018-07-26T07:34:31.864Z,61.50
2018-07-26T07:37:01.932Z,61.70
2018-07-26T07:39:31.677Z,61.90
2018-07-26T07:42:01.930Z,61.70
2018-07-26T07:44:31.587Z,61.50
2018-07-26T07:47:01.426Z,61.60
2018-07-26T07:49:31.054Z,61.20
2018-07-26T07:52:01.514Z,61.10
2018-07-26T07:54:31.384Z,60.90
2018-07-26T07:57:01.773Z,61.00
2018-07-26T07:59:31.786Z,61.10
2018-07-26T08:02:01.511Z,60.70
2018-07-26T08:04:32.752Z,61.60
2018-07-26T08:07:03.410Z,60.70
2018-07-26T08:09:34.354Z,60.70
2018-07-26T08:12:03.980Z,60.40
2018-07-26T08:14:33.652Z,60.30
2018-07-26T08:17:03.182Z,60.10
2018-07-26T08:19:33.568Z,59.80
2018-07-26T08:22:03.126Z,60.10
2018-07-26T08:24:32.513Z,58.60
2018-07-26T08:27:01.889Z,57.70
2018-07-26T08:29:33.027Z,57.40
2018-07-26T08:32:03.166Z,57.00
2018-07-26T08:34:32.685Z,56.90
2018-07-26T08:37:02.165Z,55.90
2018-07-26T08:39:32.149Z,55.30
2018-07-26T08:42:01.599Z,54.40
2018-07-26T08:44:33.006Z,54.00
2018-07-26T08:47:02.844Z,53.30
2018-07-26T08:49:32.314Z,54.20
2018-07-26T08:52:01.823Z,53.50
2018-07-26T08:54:31.174Z,53.90
2018-07-26T08:57:00.641Z,53.80
2018-07-26T08:59:30.092Z,53.60
2018-07-26T09:02:00.034Z,54.00
2018-07-26T09:04:29.850Z,53.90
2018-07-26T09:06:59.534Z,53.10
2018-07-26T09:09:29.016Z,53.00
2018-07-26T09:11:58.458Z,53.20
2018-07-26T09:14:28.176Z,52.60
2018-07-26T09:16:57.704Z,52.90
2018-07-26T09:19:27.517Z,53.60
2018-07-26T09:21:57.242Z,54.20
2018-07-26T09:24:27.356Z,53.90
2018-07-26T09:26:57.329Z,53.40
2018-07-26T09:29:27.051Z,53.90
2018-07-26T09:31:56.502Z,52.70
2018-07-26T09:34:26.488Z,53.00
2018-07-26T09:36:56.988Z,52.50
2018-07-26T09:39:26.533Z,52.00
2018-07-26T09:41:56.080Z,52.00
2018-07-26T09:47:08.485Z,53.70
2018-07-26T09:49:37.931Z,53.90
2018-07-26T09:52:08.148Z,52.10
2018-07-26T09:54:37.679Z,53.20
2018-07-26T09:57:07.247Z,52.50
2018-07-26T09:59:37.018Z,53.30
2018-07-26T10:02:06.407Z,52.30
2018-07-26T10:04:36.127Z,51.50
2018-07-26T10:07:05.556Z,51.40
2018-07-26T10:09:35.038Z,51.10
2018-07-26T10:12:04.655Z,50.70
2018-07-26T10:14:35.697Z,52.00
2018-07-26T10:17:06.433Z,50.40
2018-07-26T10:19:35.886Z,52.20
2018-07-26T10:22:05.341Z,51.00
2018-07-26T10:24:35.570Z,52.10
2018-07-26T10:27:05.092Z,53.20
2018-07-26T10:29:34.511Z,53.00
2018-07-26T10:32:04.325Z,52.00
2018-07-26T10:34:33.840Z,51.20
2018-07-26T10:37:03.386Z,51.00
2018-07-26T10:39:35.127Z,50.10
2018-07-26T10:42:04.692Z,48.40
2018-07-26T10:44:34.258Z,48.90
2018-07-26T10:47:03.873Z,50.70
2018-07-26T10:49:34.567Z,50.10
2018-07-26T10:52:04.641Z,48.60
2018-07-26T10:54:34.154Z,48.80
2018-07-26T10:57:03.635Z,48.20
2018-07-26T10:59:35.527Z,48.80
2018-07-26T11:02:08.449Z,48.00
2018-07-26T11:04:37.922Z,47.50
2018-07-26T11:07:07.564Z,47.70
2018-07-26T11:09:37.253Z,48.30
2018-07-26T11:12:06.681Z,49.00
2018-07-26T11:14:36.519Z,48.60
2018-07-26T11:17:05.919Z,51.00
2018-07-26T11:19:35.306Z,48.80
2018-07-26T11:24:45.334Z,49.90
2018-07-26T11:27:15.004Z,48.90
2018-07-26T11:29:44.462Z,49.10
2018-07-26T11:32:14.000Z,50.10
2018-07-26T11:34:43.452Z,50.40
2018-07-26T11:37:12.991Z,48.60
2018-07-26T11:39:42.402Z,46.70
2018-07-26T11:42:11.819Z,49.60
2018-07-26T11:44:41.440Z,47.60
2018-07-26T11:47:11.043Z,47.30
2018-07-26T11:49:40.588Z,46.80
2018-07-26T11:52:10.182Z,46.50
2018-07-26T11:54:39.839Z,46.20
2018-07-26T11:57:20.224Z,47.10
2018-07-26T11:59:49.785Z,46.40
2018-07-26T12:02:19.589Z,46.50
2018-07-26T12:07:34.588Z,46.90
2018-07-26T12:10:04.274Z,45.70
2018-07-26T12:12:40.156Z,46.00
2018-07-26T12:15:09.757Z,47.50
2018-07-26T12:17:40.095Z,46.00
2018-07-26T12:20:09.720Z,45.50
2018-07-26T12:22:39.238Z,45.80
2018-07-26T12:28:00.311Z,49.00
2018-07-26T12:30:31.681Z,46.60
2018-07-26T12:33:01.587Z,47.60
2018-07-26T12:35:32.016Z,47.90
2018-07-26T12:38:02.386Z,48.30
2018-07-26T12:40:32.351Z,47.20
2018-07-26T12:43:08.931Z,47.40
2018-07-26T12:45:38.503Z,49.00
2018-07-26T12:48:10.803Z,47.90
2018-07-26T12:53:35.771Z,46.90
2018-07-26T12:56:05.577Z,47.60
2018-07-26T12:58:35.700Z,46.70
2018-07-26T13:01:08.113Z,46.50
2018-07-26T13:04:12.566Z,48.70
2018-07-26T13:06:42.358Z,47.20
2018-07-26T13:09:14.099Z,46.60
2018-07-26T13:11:44.718Z,46.00
2018-07-26T13:14:23.042Z,45.50
2018-07-26T13:16:53.371Z,45.10
2018-07-26T13:19:22.965Z,44.90
2018-07-26T13:22:05.735Z,45.90
2018-07-26T13:24:35.547Z,45.60
2018-07-26T13:27:05.941Z,48.20
2018-07-26T13:32:43.607Z,46.10
2018-07-26T13:35:14.130Z,45.70
2018-07-26T13:37:43.804Z,46.00
2018-07-26T13:40:13.914Z,46.60
2018-07-26T13:42:44.065Z,45.50
2018-07-26T13:45:13.879Z,46.90
2018-07-26T13:47:43.833Z,46.30
2018-07-26T13:50:13.692Z,45.60
2018-07-26T13:52:43.613Z,45.40
2018-07-26T13:55:13.129Z,44.70
2018-07-26T13:57:44.029Z,44.20
2018-07-26T14:00:15.231Z,44.80
2018-07-26T14:02:45.907Z,44.20
2018-07-26T14:05:15.924Z,44.20
2018-07-26T14:07:45.844Z,44.40
2018-07-26T14:10:17.108Z,44.60
2018-07-26T14:12:47.267Z,45.20
2018-07-26T14:15:17.286Z,44.40
2018-07-26T14:17:47.105Z,44.50
2018-07-26T14:20:19.867Z,44.90
2018-07-26T14:22:49.717Z,46.10
2018-07-26T14:25:19.629Z,44.90
2018-07-26T14:27:52.056Z,43.60
2018-07-26T14:30:32.203Z,44.10
2018-07-26T14:33:02.269Z,43.80
2018-07-26T14:35:35.409Z,45.90
2018-07-26T14:38:18.288Z,44.40
2018-07-26T14:41:12.343Z,44.50
2018-07-26T14:43:49.711Z,43.70
2018-07-26T14:46:23.434Z,44.20
2018-07-26T14:48:53.288Z,44.20
2018-07-26T14:51:22.938Z,43.50
2018-07-26T14:53:52.851Z,44.50
2018-07-26T14:56:27.322Z,43.80
2018-07-26T14:58:57.403Z,43.20
2018-07-26T15:01:27.287Z,42.50
2018-07-26T15:03:57.369Z,42.90
2018-07-26T15:06:27.318Z,42.20
2018-07-26T15:09:18.852Z,42.20
2018-07-26T15:12:01.707Z,41.90
2018-07-26T15:14:49.311Z,42.60
2018-07-26T15:17:19.511Z,42.60
2018-07-26T15:22:29.289Z,41.80
2018-07-26T15:24:59.213Z,42.00
2018-07-26T15:27:29.009Z,41.60
2018-07-26T15:29:59.314Z,42.20
2018-07-26T15:32:40.309Z,42.60
2018-07-26T15:38:18.965Z,42.90
2018-07-26T15:40:49.406Z,45.40
2018-07-26T15:43:30.378Z,43.40
2018-07-26T15:46:00.636Z,43.30
2018-07-26T15:48:30.708Z,42.30
2018-07-26T15:51:00.604Z,43.20
2018-07-26T15:53:30.591Z,44.00
2018-07-26T15:56:02.197Z,45.00
2018-07-26T15:58:32.331Z,43.40
2018-07-26T16:01:02.316Z,44.90
2018-07-26T16:03:39.119Z,43.30
2018-07-26T16:06:15.894Z,42.80
2018-07-26T16:08:45.957Z,43.00
2018-07-26T16:11:16.151Z,43.70
2018-07-26T16:13:48.675Z,43.70
2018-07-26T16:16:20.687Z,42.80
2018-07-26T16:18:50.963Z,42.70
2018-07-26T16:21:21.388Z,43.60
2018-07-26T16:23:53.951Z,44.10
2018-07-26T16:26:24.014Z,43.30
2018-07-26T16:28:54.020Z,43.50
2018-07-26T16:31:24.037Z,43.20
2018-07-26T16:33:54.242Z,43.80
2018-07-26T16:36:24.144Z,43.10
2018-07-26T16:39:00.667Z,42.20
2018-07-26T16:41:30.493Z,43.00
2018-07-26T16:44:00.388Z,45.70
2018-07-26T16:46:30.318Z,44.00
2018-07-26T16:49:00.899Z,44.20
2018-07-26T16:51:30.681Z,44.10
2018-07-26T16:54:00.780Z,46.00
2018-07-26T16:56:30.937Z,44.50
2018-07-26T16:59:00.935Z,45.60
2018-07-26T17:01:30.900Z,45.80
2018-07-26T17:04:01.133Z,46.00
2018-07-26T17:06:31.223Z,45.10
2018-07-26T17:09:01.438Z,47.00
2018-07-26T17:11:32.226Z,45.00
2018-07-26T17:14:02.648Z,44.80
2018-07-26T17:16:32.800Z,44.70
2018-07-26T17:19:03.281Z,45.00
2018-07-26T17:21:33.139Z,44.50
2018-07-26T17:24:04.317Z,43.40
2018-07-26T17:26:36.718Z,43.50
2018-07-26T17:29:06.851Z,43.10
2018-07-26T17:31:51.849Z,43.00
2018-07-26T17:34:21.730Z,43.30
2018-07-26T17:36:53.389Z,43.10
2018-07-26T17:39:23.669Z,42.50
2018-07-26T17:41:54.005Z,44.50
2018-07-26T17:44:23.951Z,43.50
2018-07-26T17:46:53.928Z,44.00
2018-07-26T17:49:24.624Z,44.90
2018-07-26T17:51:55.681Z,43.50
2018-07-26T17:54:25.654Z,43.60
2018-07-26T17:56:55.703Z,43.40
2018-07-26T17:59:25.719Z,42.70
2018-07-26T18:01:55.615Z,42.90
2018-07-26T18:04:25.731Z,42.70
2018-07-26T18:06:55.971Z,44.10
2018-07-26T18:09:25.819Z,45.00
2018-07-26T18:11:55.482Z,44.90
2018-07-26T18:14:25.350Z,45.50
2018-07-26T18:16:55.159Z,46.00
2018-07-26T18:19:24.987Z,46.50
2018-07-26T18:21:54.682Z,46.70
2018-07-26T18:24:24.461Z,47.10
2018-07-26T18:26:54.109Z,46.80
2018-07-26T18:29:23.940Z,47.10
2018-07-26T18:31:53.615Z,47.10
2018-07-26T18:34:23.419Z,47.50
2018-07-26T18:36:53.406Z,47.50
2018-07-26T18:39:23.104Z,47.00
2018-07-26T18:41:53.131Z,47.60
2018-07-26T18:44:22.772Z,47.90
2018-07-26T18:46:52.598Z,47.80
2018-07-26T18:52:26.478Z,48.40
2018-07-26T18:54:56.029Z,48.50
2018-07-26T18:57:25.913Z,48.40
2018-07-26T18:59:55.506Z,48.70
2018-07-26T19:02:25.762Z,49.20
2018-07-26T19:04:55.477Z,49.30
2018-07-26T19:07:29.270Z,49.50
2018-07-26T19:09:58.833Z,49.60
2018-07-26T19:12:28.420Z,49.60
2018-07-26T19:14:58.150Z,49.80
2018-07-26T19:17:27.849Z,50.10
2018-07-26T19:19:57.353Z,50.40
2018-07-26T19:22:27.062Z,50.70
2018-07-26T19:24:57.507Z,50.70
2018-07-26T19:27:28.591Z,50.90
2018-07-26T19:30:04.535Z,51.10
2018-07-26T19:32:40.353Z,51.10
2018-07-26T19:35:11.379Z,51.20
2018-07-26T19:37:41.219Z,51.30
2018-07-26T19:40:12.639Z,51.50
2018-07-26T19:42:42.131Z,51.30
2018-07-26T19:45:12.452Z,51.30
2018-07-26T19:47:41.959Z,51.40
2018-07-26T19:50:11.573Z,51.50
2018-07-26T19:52:41.398Z,51.90
2018-07-26T19:55:12.691Z,51.80
2018-07-26T19:57:42.249Z,52.20
2018-07-26T20:00:11.925Z,52.10
2018-07-26T20:02:41.520Z,52.20
2018-07-26T20:05:11.064Z,52.30
2018-07-26T20:07:41.038Z,53.20
2018-07-26T20:10:12.453Z,52.70
2018-07-26T20:12:42.546Z,52.70
2018-07-26T20:15:12.291Z,52.80
2018-07-26T20:17:41.863Z,52.90
2018-07-26T20:20:12.333Z,53.00
2018-07-26T20:22:44.046Z,53.10
2018-07-26T20:25:13.513Z,53.10
2018-07-26T20:27:43.006Z,53.30
2018-07-26T20:30:12.853Z,53.30
2018-07-26T20:32:42.593Z,53.40
2018-07-26T20:35:12.180Z,53.40
2018-07-26T20:37:41.822Z,53.30
2018-07-26T20:40:11.793Z,53.50
2018-07-26T20:42:41.857Z,53.60
2018-07-26T20:45:12.410Z,53.70
2018-07-26T20:47:41.874Z,53.90
2018-07-26T20:50:11.648Z,53.80
2018-07-26T20:52:41.484Z,54.00
2018-07-26T20:55:11.311Z,54.00
2018-07-26T20:57:40.797Z,54.10
2018-07-26T21:00:12.879Z,54.10
2018-07-26T21:02:43.222Z,54.30
2018-07-26T21:05:12.971Z,54.40
2018-07-26T21:07:42.415Z,54.40
2018-07-26T21:10:12.659Z,54.50
2018-07-26T21:12:42.146Z,54.50
2018-07-26T21:15:11.855Z,54.60
2018-07-26T21:17:41.357Z,54.70
2018-07-26T21:20:11.092Z,54.60
2018-07-26T21:22:40.825Z,54.30
2018-07-26T21:25:10.347Z,54.30
2018-07-26T21:27:39.914Z,54.60
2018-07-26T21:30:09.686Z,54.80
2018-07-26T21:32:39.424Z,54.80
2018-07-26T21:35:09.111Z,54.60
2018-07-26T21:37:38.620Z,54.80
2018-07-26T21:40:08.437Z,55.00
2018-07-26T21:42:38.304Z,55.10
2018-07-26T21:45:08.286Z,55.20
2018-07-26T21:47:37.978Z,56.60
2018-07-26T21:50:07.557Z,55.80
2018-07-26T21:52:37.083Z,55.70
2018-07-26T21:55:06.701Z,55.80
2018-07-26T21:57:36.153Z,55.70
2018-07-26T22:00:09.790Z,55.50
2018-07-26T22:02:39.407Z,55.60
2018-07-26T22:05:09.137Z,55.60
2018-07-26T22:07:38.894Z,55.70
2018-07-26T22:10:08.706Z,55.70
2018-07-26T22:12:38.212Z,55.60
2018-07-26T22:15:08.005Z,55.60
2018-07-26T22:17:37.807Z,57.70
2018-07-26T22:20:07.364Z,57.00
2018-07-26T22:22:36.967Z,56.60
2018-07-26T22:25:06.816Z,56.20
2018-07-26T22:30:22.559Z,56.10
2018-07-26T22:32:52.116Z,56.00
2018-07-26T22:35:23.042Z,56.00
2018-07-26T22:37:52.762Z,56.10
2018-07-26T22:40:22.370Z,56.10
2018-07-26T22:42:51.919Z,56.10
2018-07-26T22:45:21.804Z,56.10
2018-07-26T22:47:51.520Z,58.50
2018-07-26T22:50:21.096Z,57.60
2018-07-26T22:52:50.796Z,57.10
2018-07-26T22:55:20.568Z,57.10
2018-07-26T22:57:50.004Z,57.00
2018-07-26T23:00:19.616Z,56.60
2018-07-26T23:02:49.180Z,56.50
2018-07-26T23:05:18.936Z,56.60
2018-07-26T23:07:48.404Z,56.40
2018-07-26T23:10:17.842Z,56.50
2018-07-26T23:12:47.501Z,56.40
2018-07-26T23:15:17.181Z,56.60
2018-07-26T23:17:47.014Z,56.60
2018-07-26T23:20:16.457Z,56.60
2018-07-26T23:22:46.285Z,56.80
2018-07-26T23:25:15.739Z,56.60
2018-07-26T23:27:45.189Z,56.80
2018-07-26T23:30:14.736Z,56.70
2018-07-26T23:32:44.400Z,56.80
2018-07-26T23:35:13.906Z,56.70
2018-07-26T23:37:43.538Z,56.70
2018-07-26T23:40:13.171Z,56.80
2018-07-26T23:42:42.899Z,56.80
2018-07-26T23:45:12.664Z,57.00
2018-07-26T23:47:42.136Z,57.70
2018-07-26T23:50:11.628Z,57.10
2018-07-26T23:52:41.257Z,57.20
2018-07-26T23:55:10.933Z,57.20
2018-07-26T23:57:40.465Z,57.10
